The Pas Airport
CYQD : now visible

Airfield :











YOU CAN JOIN US ON...

 
LOGIN :

Register | Disclaimer

   EN    FR    IT 

 









Legend :    VFR   Marginal VFR   IFR   Intensive IFR   Very Intensive IFR
Visi :
Ceiling :
>= 8 km
>= 3000ft
5 to 8 km
1000 to 3000 ft
1500m to 5 km
500 to 1000 ft
800 to 1500m
200 to 500 ft
< 800m
< 200 ft
Symbols :   Thunderstorms  Fog  Heavy snow  Heavy precipitations  Wind > 20 kt






- Airport Elevation : 887 ft
- IATA code : YQD


CYQD - The Pas

CURRENT METAR :
  • 271948Z AUTO 10012G21KT 9SM BKN018 BKN040 M04/M06 A2961 RMK SLP047

EXPIRED METARs :
  • 271920Z AUTO 11012G20KT 6SM -SN OVC034 M04/M06 A2963 RMK SLP053
  • 271900Z AUTO 11010G20KT 5SM -SN OVC036 M04/M07 A2964 RMK SLP058
  • 271856Z AUTO 12012G21KT 5SM -SN OVC038 M04/M07 A2964 RMK SLP058
  • 271817Z AUTO 10012G18KT 9SM -SN BKN055 OVC072 M05/M07 A2967 RMK SLP066
  • 271800Z AUTO 11011G18KT 9SM OVC071 M05/M07 A2967 RMK SLP068
  • 271700Z AUTO 11013G18KT 9SM OVC055 M06/M08 A2969 RMK SLP076

TAF TAF CYQD
Valid from the 27 at 19:00 until the 28 at 07:00 UTC


271840Z 2719/2807 12012G22KT P6SM SCT020 OVC050
TEMPO 2719/2722 3SM -SN OVC020
FM272200 10015G25KT 6SM -SN OVC025
TEMPO 2722/2801 2SM -SHSN OVC008
FM280100 09018G28KT 1SM -SN OVC008
TEMPO 2801/2807 6SM -SN OVC015 RMK FCST BASED ON AUTO OBS. NXT FCST BY 280100Z
CZWG FIR / North America



MET'MAP, your aeronautical weather chart ! - Copyright ORBIFLY December 2007 - Disclaimer

ORBIFLY MET'MAP TEAM :

Programming & Development : Alexandra Zaïnal
Original concept : Baudouin d'Aumeries
Technical & hardware support : Manuel Goepfert
Assistance : Marc-Olivier Méhu




SOURCES & CREDITS :

   NOAA       Earth
Advisory